createdAt,value
2018-11-04T00:00:57.815Z,13.40
2018-11-04T00:03:27.347Z,15.63
2018-11-04T00:05:55.710Z,14.63
2018-11-04T00:08:24.062Z,15.60
2018-11-04T00:10:52.538Z,16.75
2018-11-04T00:13:21.143Z,14.65
2018-11-04T00:15:49.464Z,16.32
2018-11-04T00:18:17.906Z,14.60
2018-11-04T00:20:46.256Z,15.83
2018-11-04T00:23:14.736Z,15.65
2018-11-04T00:25:43.138Z,17.95
2018-11-04T00:28:11.586Z,16.87
2018-11-04T00:30:39.973Z,17.87
2018-11-04T00:33:08.372Z,20.48
2018-11-04T00:35:36.790Z,17.17
2018-11-04T00:38:05.528Z,16.55
2018-11-04T00:40:33.934Z,16.23
2018-11-04T00:43:02.389Z,17.50
2018-11-04T00:45:31.026Z,16.05
2018-11-04T00:47:59.221Z,16.93
2018-11-04T00:50:27.668Z,17.75
2018-11-04T00:52:56.448Z,17.98
2018-11-04T00:55:25.027Z,16.73
2018-11-04T00:57:53.448Z,16.85
2018-11-04T01:00:21.828Z,17.02
2018-11-04T01:02:50.834Z,16.30
2018-11-04T01:05:19.347Z,17.17
2018-11-04T01:07:47.701Z,18.73
2018-11-04T01:10:16.078Z,17.40
2018-11-04T01:12:44.934Z,16.50
2018-11-04T01:15:14.282Z,17.48
2018-11-04T01:17:43.146Z,18.35
2018-11-04T01:20:14.140Z,19.65
2018-11-04T01:22:42.747Z,18.62
2018-11-04T01:25:11.172Z,20.00
2018-11-04T01:27:39.652Z,20.52
2018-11-04T01:30:11.172Z,19.95
2018-11-04T01:32:39.517Z,19.12
2018-11-04T01:35:08.205Z,18.23
2018-11-04T01:37:36.656Z,19.17
2018-11-04T01:40:05.957Z,20.12
2018-11-04T01:42:34.346Z,19.20
2018-11-04T01:45:02.734Z,18.42
2018-11-04T01:47:31.095Z,19.60
2018-11-04T01:49:59.482Z,17.60
2018-11-04T01:52:27.850Z,18.80
2018-11-04T01:54:56.427Z,17.62
2018-11-04T01:57:24.802Z,19.75
2018-11-04T01:59:53.195Z,21.05
2018-11-04T02:02:22.399Z,20.82
2018-11-04T02:04:50.790Z,19.45
2018-11-04T02:07:19.191Z,20.92
2018-11-04T02:09:47.585Z,21.65
2018-11-04T02:12:15.959Z,22.30
2018-11-04T02:14:44.307Z,25.25
2018-11-04T02:17:12.669Z,22.10
2018-11-04T02:19:40.949Z,22.05
2018-11-04T02:22:09.373Z,22.50
2018-11-04T02:24:37.699Z,21.00
2018-11-04T02:27:06.292Z,22.07
2018-11-04T02:29:34.627Z,21.68
2018-11-04T02:32:03.111Z,22.55
2018-11-04T02:34:31.411Z,23.27
2018-11-04T02:36:59.814Z,23.25
2018-11-04T02:39:28.180Z,21.70
2018-11-04T02:41:56.663Z,22.82
2018-11-04T02:44:25.213Z,22.32
2018-11-04T02:46:53.573Z,20.43
2018-11-04T02:49:22.077Z,23.02
2018-11-04T02:51:50.421Z,23.95
2018-11-04T02:54:18.831Z,21.75
2018-11-04T02:56:47.155Z,21.87
2018-11-04T02:59:15.581Z,21.07
2018-11-04T03:01:44.123Z,19.92
2018-11-04T03:04:12.481Z,22.32
2018-11-04T03:06:40.823Z,22.20
2018-11-04T03:09:09.799Z,22.55
2018-11-04T03:11:38.251Z,22.30
2018-11-04T03:14:06.650Z,22.48
2018-11-04T03:16:35.069Z,23.18
2018-11-04T03:19:03.454Z,23.30
2018-11-04T03:21:31.788Z,23.27
2018-11-04T03:24:00.175Z,21.23
2018-11-04T03:26:28.675Z,22.32
2018-11-04T03:28:57.050Z,21.80
2018-11-04T03:31:25.465Z,23.25
2018-11-04T03:33:53.804Z,22.50
2018-11-04T03:36:22.136Z,22.48
2018-11-04T03:38:50.520Z,22.30
2018-11-04T03:41:18.868Z,22.42
2018-11-04T03:43:47.150Z,24.55
2018-11-04T03:46:15.552Z,21.95
2018-11-04T03:48:43.893Z,22.75
2018-11-04T03:51:12.256Z,24.15
2018-11-04T03:53:40.651Z,23.30
2018-11-04T03:56:09.031Z,22.55
2018-11-04T03:58:37.446Z,23.00
2018-11-04T04:01:06.031Z,24.45
2018-11-04T04:03:34.385Z,21.23
2018-11-04T04:06:02.793Z,21.80
2018-11-04T04:08:31.148Z,23.95
2018-11-04T04:10:59.472Z,22.58
2018-11-04T04:13:27.880Z,21.23
2018-11-04T04:15:56.310Z,23.05
2018-11-04T04:18:24.727Z,22.80
2018-11-04T04:20:58.251Z,21.07
2018-11-04T04:23:26.648Z,23.98
2018-11-04T04:25:55.036Z,23.57
2018-11-04T04:28:23.454Z,21.27
2018-11-04T04:30:51.836Z,22.30
2018-11-04T04:33:20.239Z,21.30
2018-11-04T04:35:48.632Z,24.90
2018-11-04T04:38:17.022Z,22.20
2018-11-04T04:40:45.428Z,23.70
2018-11-04T04:43:13.831Z,24.10
2018-11-04T04:45:42.204Z,24.72
2018-11-04T04:48:10.583Z,24.40
2018-11-04T04:50:38.957Z,24.10
2018-11-04T04:53:07.525Z,24.80
2018-11-04T04:55:35.964Z,25.15
2018-11-04T04:58:04.536Z,24.40
2018-11-04T05:00:33.186Z,25.05
2018-11-04T05:03:01.555Z,24.60
2018-11-04T05:05:30.018Z,25.23
2018-11-04T05:07:58.467Z,24.27
2018-11-04T05:10:26.860Z,23.77
2018-11-04T05:12:55.312Z,23.98
2018-11-04T05:15:23.738Z,24.90
2018-11-04T05:17:52.162Z,24.30
2018-11-04T05:20:20.517Z,27.07
2018-11-04T05:22:48.878Z,27.20
2018-11-04T05:25:17.296Z,25.95
2018-11-04T05:27:45.723Z,27.15
2018-11-04T05:30:14.101Z,27.58
2018-11-04T05:32:42.496Z,25.23
2018-11-04T05:35:10.911Z,28.45
2018-11-04T05:37:39.269Z,29.37
2018-11-04T05:40:08.007Z,26.23
2018-11-04T05:42:36.415Z,27.58
2018-11-04T05:45:05.557Z,25.50
2018-11-04T05:47:34.848Z,26.52
2018-11-04T05:50:03.432Z,27.07
2018-11-04T05:52:31.863Z,26.48
2018-11-04T05:55:00.416Z,25.80
2018-11-04T05:57:28.778Z,26.90
2018-11-04T05:59:57.270Z,27.05
2018-11-04T06:02:25.687Z,27.02
2018-11-04T06:04:54.109Z,28.85
2018-11-04T06:07:22.500Z,28.00
2018-11-04T06:09:50.896Z,26.12
2018-11-04T06:12:19.342Z,25.57
2018-11-04T06:14:47.772Z,26.75
2018-11-04T06:17:16.157Z,26.95
2018-11-04T06:19:44.531Z,26.68
2018-11-04T06:22:12.928Z,22.45
2018-11-04T06:24:41.329Z,26.12
2018-11-04T06:27:09.750Z,27.40
2018-11-04T06:29:38.170Z,27.80
2018-11-04T06:32:06.581Z,27.13
2018-11-04T06:34:35.035Z,25.43
2018-11-04T06:37:03.398Z,27.95
2018-11-04T06:39:31.781Z,28.05
2018-11-04T06:42:00.184Z,29.12
2018-11-04T06:44:28.561Z,27.95
2018-11-04T06:46:56.909Z,25.27
2018-11-04T06:49:25.276Z,26.42
2018-11-04T06:51:53.670Z,28.38
2018-11-04T06:54:22.030Z,27.50
2018-11-04T06:56:50.405Z,28.60
2018-11-04T06:59:18.775Z,28.80
2018-11-04T07:01:47.122Z,28.80
2018-11-04T07:04:24.977Z,26.30
2018-11-04T07:06:53.423Z,27.98
2018-11-04T07:09:21.817Z,28.02
2018-11-04T07:11:50.408Z,29.87
2018-11-04T07:14:19.230Z,29.10
2018-11-04T07:16:47.666Z,29.57
2018-11-04T07:19:16.476Z,27.67
2018-11-04T07:21:45.415Z,28.70
2018-11-04T07:24:13.858Z,28.10
2018-11-04T07:26:42.255Z,27.77
2018-11-04T07:29:10.856Z,29.98
2018-11-04T07:31:39.214Z,28.92
2018-11-04T07:34:07.827Z,28.98
2018-11-04T07:36:36.252Z,28.87
2018-11-04T07:39:08.190Z,32.35
2018-11-04T07:41:36.543Z,28.83
2018-11-04T07:44:05.006Z,28.70
2018-11-04T07:46:33.395Z,32.85
2018-11-04T07:49:01.798Z,30.57
2018-11-04T07:51:30.253Z,29.95
2018-11-04T07:53:58.565Z,30.77
2018-11-04T07:56:26.980Z,29.65
2018-11-04T07:58:55.386Z,30.57
2018-11-04T08:01:23.787Z,30.77
2018-11-04T08:03:52.225Z,31.93
2018-11-04T08:06:20.563Z,30.25
2018-11-04T08:08:49.074Z,30.57
2018-11-04T08:11:17.445Z,31.77
2018-11-04T08:13:46.062Z,29.50
2018-11-04T08:16:14.424Z,30.17
2018-11-04T08:18:42.796Z,31.55
2018-11-04T08:21:11.288Z,32.33
2018-11-04T08:23:39.748Z,32.35
2018-11-04T08:26:08.094Z,31.37
2018-11-04T08:28:36.482Z,33.63
2018-11-04T08:31:04.931Z,31.42
2018-11-04T08:33:33.348Z,32.25
2018-11-04T08:36:01.716Z,32.10
2018-11-04T08:38:30.099Z,33.00
2018-11-04T08:40:58.483Z,31.75
2018-11-04T08:43:26.872Z,31.73
2018-11-04T08:45:55.379Z,31.45
2018-11-04T08:48:23.695Z,31.42
2018-11-04T08:50:52.086Z,30.62
2018-11-04T08:53:20.474Z,31.48
2018-11-04T08:55:48.844Z,31.73
2018-11-04T08:58:17.221Z,32.33
2018-11-04T09:00:45.704Z,33.63
2018-11-04T09:03:14.076Z,30.37
2018-11-04T09:05:42.500Z,32.95
2018-11-04T09:08:10.905Z,31.68
2018-11-04T09:10:39.300Z,30.62
2018-11-04T09:13:07.647Z,31.05
2018-11-04T09:15:36.118Z,31.10
2018-11-04T09:18:04.641Z,31.52
2018-11-04T09:20:33.027Z,32.08
2018-11-04T09:23:01.391Z,29.30
2018-11-04T09:25:29.767Z,32.40
2018-11-04T09:27:58.195Z,31.70
2018-11-04T09:30:26.564Z,32.20
2018-11-04T09:32:54.983Z,33.63
2018-11-04T09:35:23.444Z,30.40
2018-11-04T09:37:51.795Z,30.80
2018-11-04T09:40:20.213Z,31.17
2018-11-04T09:42:48.784Z,32.30
2018-11-04T09:45:17.197Z,32.58
2018-11-04T09:47:45.558Z,30.88
2018-11-04T09:50:14.227Z,31.37
2018-11-04T09:52:43.270Z,33.70
2018-11-04T09:55:12.316Z,31.27
2018-11-04T09:57:40.988Z,31.93
2018-11-04T10:00:10.739Z,31.25
2018-11-04T10:02:39.266Z,31.30
2018-11-04T10:05:09.213Z,30.40
2018-11-04T10:07:38.034Z,29.05
2018-11-04T10:10:09.640Z,30.35
2018-11-04T10:12:38.048Z,30.27
2018-11-04T10:15:07.014Z,29.32
2018-11-04T10:17:36.445Z,30.50
2018-11-04T10:20:05.959Z,28.15
2018-11-04T10:22:33.922Z,29.98
2018-11-04T10:25:03.038Z,30.55
2018-11-04T10:27:31.424Z,28.73
2018-11-04T10:29:59.853Z,30.77
2018-11-04T10:32:28.384Z,28.70
2018-11-04T10:34:56.702Z,31.90
2018-11-04T10:37:25.141Z,31.23
2018-11-04T10:39:53.480Z,29.02
2018-11-04T10:42:21.893Z,28.77
2018-11-04T10:44:50.322Z,30.12
2018-11-04T10:47:18.738Z,31.23
2018-11-04T10:49:47.122Z,30.32
2018-11-04T10:52:15.451Z,28.98
2018-11-04T10:54:43.852Z,30.72
2018-11-04T10:57:12.252Z,31.02
2018-11-04T10:59:40.612Z,28.57
2018-11-04T11:02:09.006Z,31.35
2018-11-04T11:04:37.441Z,29.92
2018-11-04T11:07:06.137Z,32.05
2018-11-04T11:09:34.524Z,31.65
2018-11-04T11:12:03.548Z,32.08
2018-11-04T11:14:31.919Z,29.48
2018-11-04T11:17:00.483Z,32.30
2018-11-04T11:19:28.947Z,31.10
2018-11-04T11:21:57.338Z,30.70
2018-11-04T11:24:25.711Z,31.07
2018-11-04T11:26:54.107Z,31.37
2018-11-04T11:29:22.487Z,31.45
2018-11-04T11:31:50.909Z,29.10
2018-11-04T11:34:19.275Z,30.77
2018-11-04T11:36:47.681Z,30.35
2018-11-04T11:39:16.063Z,30.65
2018-11-04T11:41:44.412Z,31.33
2018-11-04T11:44:12.836Z,32.83
2018-11-04T11:46:41.204Z,30.92
2018-11-04T11:49:09.797Z,32.23
2018-11-04T11:51:41.364Z,30.62
2018-11-04T11:54:10.124Z,31.95
2018-11-04T11:56:38.585Z,30.75
2018-11-04T11:59:07.144Z,30.02
2018-11-04T12:01:35.600Z,29.92
2018-11-04T12:04:03.970Z,31.95
2018-11-04T12:06:32.394Z,30.90
2018-11-04T12:09:00.868Z,32.23
2018-11-04T12:11:29.287Z,31.87
2018-11-04T12:13:57.957Z,32.05
2018-11-04T12:16:26.356Z,30.95
2018-11-04T12:18:54.876Z,31.12
2018-11-04T12:21:24.349Z,32.15
2018-11-04T12:23:52.812Z,31.93
2018-11-04T12:26:21.238Z,30.32
2018-11-04T12:28:49.688Z,29.90
2018-11-04T12:31:19.182Z,29.67
2018-11-04T12:33:47.580Z,31.70
2018-11-04T12:36:16.020Z,30.25
2018-11-04T12:38:44.639Z,32.35
2018-11-04T12:41:12.994Z,30.43
2018-11-04T12:43:41.901Z,30.70
2018-11-04T12:46:10.813Z,31.15
2018-11-04T12:48:39.233Z,30.00
2018-11-04T12:51:07.659Z,32.63
2018-11-04T12:53:36.089Z,30.30
2018-11-04T12:56:04.610Z,31.80
2018-11-04T12:58:33.036Z,31.75
2018-11-04T13:01:03.175Z,30.40
2018-11-04T13:03:31.590Z,29.95
2018-11-04T13:06:00.008Z,30.70
2018-11-04T13:08:28.479Z,33.38
2018-11-04T13:10:56.866Z,30.10
2018-11-04T13:13:25.402Z,30.90
2018-11-04T13:15:53.886Z,31.48
2018-11-04T13:18:22.387Z,30.15
2018-11-04T13:20:50.859Z,29.37
2018-11-04T13:23:20.139Z,30.37
2018-11-04T13:25:49.151Z,31.20
2018-11-04T13:28:17.624Z,29.37
2018-11-04T13:30:46.883Z,30.57
2018-11-04T13:33:15.596Z,31.48
2018-11-04T13:35:44.437Z,28.53
2018-11-04T13:38:13.193Z,30.47
2018-11-04T13:40:41.603Z,29.65
2018-11-04T13:43:10.561Z,29.27
2018-11-04T13:45:38.900Z,29.00
2018-11-04T13:48:09.576Z,30.60
2018-11-04T13:50:38.030Z,30.12
2018-11-04T13:53:06.437Z,29.70
2018-11-04T13:55:34.862Z,28.50
2018-11-04T13:58:03.441Z,28.17
2018-11-04T14:00:32.460Z,28.10
2018-11-04T14:03:00.897Z,26.97
2018-11-04T14:05:29.270Z,28.63
2018-11-04T14:07:57.905Z,26.80
2018-11-04T14:10:26.384Z,29.93
2018-11-04T14:12:54.970Z,28.67
2018-11-04T14:15:24.862Z,28.55
2018-11-04T14:17:56.530Z,27.47
2018-11-04T14:20:25.174Z,27.50
2018-11-04T14:22:53.810Z,28.30
2018-11-04T14:25:22.168Z,26.97
2018-11-04T14:27:50.648Z,27.45
2018-11-04T14:30:20.335Z,28.23
2018-11-04T14:32:49.019Z,26.30
2018-11-04T14:35:18.533Z,27.17
2018-11-04T14:37:47.317Z,27.55
2018-11-04T14:40:17.103Z,25.77
2018-11-04T14:42:46.017Z,26.35
2018-11-04T14:45:14.904Z,27.30
2018-11-04T14:47:44.270Z,26.00
2018-11-04T14:50:14.153Z,27.07
2018-11-04T14:52:42.703Z,27.52
2018-11-04T14:55:12.234Z,26.10
2018-11-04T14:57:40.837Z,26.02
2018-11-04T15:00:12.449Z,25.75
2018-11-04T15:02:41.216Z,26.40
2018-11-04T15:05:11.609Z,26.37
2018-11-04T15:07:40.174Z,24.75
2018-11-04T15:10:10.589Z,25.68
2018-11-04T15:12:39.311Z,24.67
2018-11-04T15:15:09.441Z,26.37
2018-11-04T15:17:38.056Z,25.45
2018-11-04T15:20:07.101Z,26.00
2018-11-04T15:22:35.559Z,25.60
2018-11-04T15:25:04.313Z,24.92
2018-11-04T15:27:32.760Z,27.98
2018-11-04T15:30:01.238Z,24.43
2018-11-04T15:32:30.828Z,23.50
2018-11-04T15:34:59.829Z,24.82
2018-11-04T15:37:28.802Z,23.90
2018-11-04T15:39:58.132Z,23.62
2018-11-04T15:42:27.589Z,23.27
2018-11-04T15:44:56.414Z,24.40
2018-11-04T15:47:25.653Z,24.90
2018-11-04T15:49:54.203Z,23.73
2018-11-04T15:52:22.708Z,23.73
2018-11-04T15:54:51.581Z,23.10
2018-11-04T15:57:20.663Z,23.47
2018-11-04T15:59:50.726Z,23.20
2018-11-04T16:02:22.474Z,22.82
2018-11-04T16:04:58.400Z,21.77
2018-11-04T16:07:28.141Z,21.95
2018-11-04T16:09:57.050Z,23.50
2018-11-04T16:12:26.363Z,23.55
2018-11-04T16:14:55.745Z,23.62
2018-11-04T16:17:24.182Z,23.12
2018-11-04T16:19:52.830Z,22.80
2018-11-04T16:22:21.813Z,23.47
2018-11-04T16:24:50.441Z,23.18
2018-11-04T16:27:18.901Z,23.25
2018-11-04T16:29:47.529Z,24.02
2018-11-04T16:32:15.955Z,23.62
2018-11-04T16:34:44.557Z,21.95
2018-11-04T16:37:14.117Z,22.37
2018-11-04T16:39:45.360Z,21.87
2018-11-04T16:42:15.039Z,22.42
2018-11-04T16:44:44.516Z,20.92
2018-11-04T16:47:14.733Z,22.20
2018-11-04T16:49:44.144Z,21.77
2018-11-04T16:52:13.224Z,22.13
2018-11-04T16:54:41.612Z,21.25
2018-11-04T16:57:10.706Z,20.77
2018-11-04T16:59:40.335Z,23.10
2018-11-04T17:02:09.183Z,19.92
2018-11-04T17:04:37.822Z,21.25
2018-11-04T17:07:12.917Z,20.27
2018-11-04T17:09:41.421Z,21.15
2018-11-04T17:12:10.899Z,21.40
2018-11-04T17:14:40.685Z,19.32
2018-11-04T17:17:09.950Z,19.00
2018-11-04T17:19:38.377Z,19.20
2018-11-04T17:22:07.692Z,21.33
2018-11-04T17:24:36.148Z,19.20
2018-11-04T17:27:04.613Z,19.40
2018-11-04T17:29:33.143Z,19.25
2018-11-04T17:32:02.524Z,20.65
2018-11-04T17:34:30.961Z,19.40
2018-11-04T17:36:59.425Z,20.85
2018-11-04T17:39:27.882Z,18.80
2018-11-04T17:41:56.566Z,19.60
2018-11-04T17:44:25.608Z,19.15
2018-11-04T17:46:53.993Z,19.05
2018-11-04T17:49:22.697Z,18.37
2018-11-04T17:51:51.288Z,20.12
2018-11-04T17:54:19.707Z,20.55
2018-11-04T17:56:48.149Z,18.75
2018-11-04T17:59:16.581Z,20.60
2018-11-04T18:01:45.043Z,17.50
2018-11-04T18:04:13.450Z,21.75
2018-11-04T18:06:42.063Z,19.40
2018-11-04T18:09:10.508Z,20.37
2018-11-04T18:11:39.393Z,19.67
2018-11-04T18:14:08.182Z,20.25
2018-11-04T18:16:36.649Z,19.12
2018-11-04T18:19:05.495Z,17.67
2018-11-04T18:21:33.955Z,18.10
2018-11-04T18:24:09.277Z,17.32
2018-11-04T18:26:38.113Z,18.57
2018-11-04T18:29:10.799Z,19.48
2018-11-04T18:31:40.313Z,17.92
2018-11-04T18:34:09.595Z,17.65
2018-11-04T18:36:38.805Z,18.65
2018-11-04T18:39:10.303Z,17.85
2018-11-04T18:41:39.087Z,16.93
2018-11-04T18:44:08.209Z,17.95
2018-11-04T18:46:37.209Z,17.35
2018-11-04T18:49:11.797Z,17.57
2018-11-04T18:51:41.521Z,17.07
2018-11-04T18:54:10.317Z,15.72
2018-11-04T18:56:40.419Z,18.40
2018-11-04T18:59:09.702Z,17.90
2018-11-04T19:01:38.143Z,16.62
2018-11-04T19:04:06.720Z,17.87
2018-11-04T19:06:36.029Z,16.70
2018-11-04T19:09:07.137Z,16.42
2018-11-04T19:11:35.729Z,18.17
2018-11-04T19:14:04.153Z,17.10
2018-11-04T19:16:32.631Z,17.23
2018-11-04T19:19:01.331Z,17.10
2018-11-04T19:21:30.054Z,17.27
2018-11-04T19:23:59.283Z,17.12
2018-11-04T19:26:27.791Z,16.93
2018-11-04T19:28:56.249Z,17.20
2018-11-04T19:31:25.216Z,16.17
2018-11-04T19:33:53.603Z,17.00
2018-11-04T19:36:23.000Z,16.52
2018-11-04T19:38:54.766Z,15.90
2018-11-04T19:41:23.876Z,16.80
2018-11-04T19:43:52.284Z,16.20
2018-11-04T19:46:20.758Z,15.85
2018-11-04T19:48:49.354Z,16.75
2018-11-04T19:51:20.336Z,15.58
2018-11-04T19:53:49.775Z,16.30
2018-11-04T19:56:18.782Z,15.48
2018-11-04T19:58:47.959Z,16.87
2018-11-04T20:01:18.196Z,16.02
2018-11-04T20:03:46.774Z,16.02
2018-11-04T20:06:15.206Z,16.10
2018-11-04T20:08:48.769Z,15.15
2018-11-04T20:11:17.768Z,15.60
2018-11-04T20:13:51.697Z,15.65
2018-11-04T20:16:21.115Z,15.35
2018-11-04T20:18:55.083Z,14.70
2018-11-04T20:21:23.939Z,13.90
2018-11-04T20:23:52.440Z,14.50
2018-11-04T20:26:20.881Z,14.75
2018-11-04T20:28:49.299Z,15.40
2018-11-04T20:31:23.177Z,14.80
2018-11-04T20:33:51.541Z,14.50
2018-11-04T20:36:20.041Z,15.03
2018-11-04T20:38:53.715Z,13.32
2018-11-04T20:41:28.942Z,14.60
2018-11-04T20:43:57.377Z,13.22
2018-11-04T20:46:25.829Z,14.07
2018-11-04T20:49:01.151Z,13.83
2018-11-04T20:51:29.926Z,13.08
2018-11-04T20:53:58.406Z,13.40
2018-11-04T20:58:33.387Z,12.47
2018-11-04T21:01:03.015Z,12.85
2018-11-04T21:03:34.202Z,13.05
2018-11-04T21:06:02.885Z,11.93
2018-11-04T21:08:32.842Z,12.58
2018-11-04T21:11:01.527Z,13.62
2018-11-04T21:13:30.278Z,12.50
2018-11-04T21:15:58.721Z,12.07
2018-11-04T21:18:27.238Z,12.40
2018-11-04T21:20:55.744Z,11.88
2018-11-04T21:23:24.110Z,11.55
2018-11-04T21:25:52.605Z,12.18
2018-11-04T21:28:21.713Z,12.95
2018-11-04T21:30:53.405Z,12.30
2018-11-04T21:33:21.958Z,11.55
2018-11-04T21:35:51.018Z,12.28
2018-11-04T21:38:22.333Z,11.50
2018-11-04T21:40:51.273Z,11.88
2018-11-04T21:43:20.200Z,11.93
2018-11-04T21:45:48.919Z,12.35
2018-11-04T21:48:34.607Z,12.60
2018-11-04T21:51:03.084Z,12.28
2018-11-04T21:53:33.538Z,12.80
2018-11-04T21:56:06.463Z,12.18
2018-11-04T21:58:35.944Z,11.70
2018-11-04T22:01:05.395Z,12.23
2018-11-04T22:03:37.095Z,12.60
2018-11-04T22:06:05.759Z,11.63
2018-11-04T22:08:44.848Z,11.53
2018-11-04T22:11:13.279Z,11.85
2018-11-04T22:13:45.079Z,12.07
2018-11-04T22:16:13.572Z,10.90
2018-11-04T22:18:42.074Z,11.95
2018-11-04T22:21:11.531Z,12.28
2018-11-04T22:23:41.529Z,12.10
2018-11-04T22:26:10.004Z,12.20
2018-11-04T22:28:38.471Z,13.30
2018-11-04T22:31:08.659Z,12.55
2018-11-04T22:33:37.062Z,13.32
2018-11-04T22:36:06.957Z,13.50
2018-11-04T22:38:36.288Z,12.85
2018-11-04T22:41:04.842Z,13.62
2018-11-04T22:43:33.238Z,11.65
2018-11-04T22:46:01.843Z,13.93
2018-11-04T22:48:40.334Z,12.90
2018-11-04T22:51:08.780Z,13.90
2018-11-04T22:53:38.837Z,12.55
2018-11-04T22:56:07.466Z,13.30
2018-11-04T22:58:35.693Z,13.43
2018-11-04T23:01:04.076Z,13.55
2018-11-04T23:03:32.514Z,12.98
2018-11-04T23:06:06.882Z,13.13
2018-11-04T23:08:35.393Z,13.38
2018-11-04T23:11:03.868Z,13.98
2018-11-04T23:13:32.410Z,14.53
2018-11-04T23:16:00.829Z,13.80
2018-11-04T23:18:29.279Z,14.00
2018-11-04T23:20:57.611Z,13.50
2018-11-04T23:23:26.119Z,14.53
2018-11-04T23:25:54.492Z,13.90
2018-11-04T23:28:22.822Z,14.40
2018-11-04T23:30:51.434Z,13.32
2018-11-04T23:33:19.817Z,13.50
2018-11-04T23:35:48.260Z,14.07
2018-11-04T23:38:16.632Z,13.90
2018-11-04T23:40:45.041Z,13.80
2018-11-04T23:43:13.420Z,13.20
2018-11-04T23:45:41.826Z,13.40
2018-11-04T23:48:10.176Z,12.78
2018-11-04T23:50:38.552Z,13.35
2018-11-04T23:53:07.097Z,13.35
2018-11-04T23:55:35.454Z,12.47
2018-11-04T23:58:03.848Z,13.50
